createdAt,value
2018-06-14T00:01:10.459Z,20.15
2018-06-14T00:03:41.283Z,20.15
2018-06-14T00:06:12.285Z,20.13
2018-06-14T00:08:43.219Z,19.99
2018-06-14T00:11:14.414Z,20.07
2018-06-14T00:13:45.471Z,20.10
2018-06-14T00:16:16.589Z,20.10
2018-06-14T00:18:47.860Z,20.10
2018-06-14T00:21:18.997Z,20.08
2018-06-14T00:23:49.865Z,20.11
2018-06-14T00:26:20.977Z,20.10
2018-06-14T00:28:52.021Z,20.03
2018-06-14T00:31:24.936Z,20.00
2018-06-14T00:33:55.901Z,20.01
2018-06-14T00:36:26.866Z,20.00
2018-06-14T00:38:58.075Z,19.99
2018-06-14T00:41:29.120Z,19.97
2018-06-14T00:44:00.252Z,19.90
2018-06-14T00:46:31.291Z,19.92
2018-06-14T00:49:02.346Z,19.97
2018-06-14T00:51:33.348Z,19.91
2018-06-14T00:54:04.320Z,19.91
2018-06-14T00:56:45.611Z,19.96
2018-06-14T00:59:16.451Z,20.01
2018-06-14T01:01:49.175Z,19.95
2018-06-14T01:04:20.291Z,19.98
2018-06-14T01:06:51.424Z,20.03
2018-06-14T01:09:22.377Z,20.08
2018-06-14T01:11:53.498Z,20.03
2018-06-14T01:14:24.973Z,20.00
2018-06-14T01:16:55.908Z,20.03
2018-06-14T01:19:26.780Z,20.04
2018-06-14T01:21:57.793Z,20.09
2018-06-14T01:24:28.870Z,20.12
2018-06-14T01:27:00.720Z,20.09
2018-06-14T01:29:31.797Z,19.99
2018-06-14T01:32:02.884Z,19.86
2018-06-14T01:34:34.179Z,19.84
2018-06-14T01:37:06.244Z,19.77
2018-06-14T01:39:36.992Z,19.77
2018-06-14T01:42:08.898Z,19.67
2018-06-14T01:44:39.822Z,19.58
2018-06-14T01:47:10.883Z,19.45
2018-06-14T01:49:41.793Z,19.32
2018-06-14T01:52:12.864Z,19.28
2018-06-14T01:54:43.887Z,19.31
2018-06-14T01:57:15.779Z,19.14
2018-06-14T01:59:46.994Z,19.12
2018-06-14T02:02:18.162Z,19.22
2018-06-14T02:04:49.192Z,19.24
2018-06-14T02:07:21.092Z,19.30
2018-06-14T02:09:53.002Z,19.21
2018-06-14T02:12:24.085Z,19.29
2018-06-14T02:14:54.939Z,19.18
2018-06-14T02:17:26.813Z,19.07
2018-06-14T02:19:57.963Z,19.14
2018-06-14T02:22:28.938Z,19.19
2018-06-14T02:25:00.208Z,19.22
2018-06-14T02:27:31.363Z,19.25
2018-06-14T02:30:02.351Z,19.29
2018-06-14T02:32:34.222Z,19.25
2018-06-14T02:35:05.335Z,19.17
2018-06-14T02:37:41.880Z,19.14
2018-06-14T02:40:13.645Z,19.18
2018-06-14T02:43:00.130Z,19.16
2018-06-14T02:45:36.495Z,19.12
2018-06-14T02:48:07.058Z,19.14
2018-06-14T02:50:37.650Z,19.27
2018-06-14T02:53:08.297Z,19.32
2018-06-14T02:55:38.698Z,19.37
2018-06-14T02:58:09.323Z,19.48
2018-06-14T03:00:39.971Z,19.76
2018-06-14T03:03:10.699Z,19.98
2018-06-14T03:05:41.262Z,20.35
2018-06-14T03:08:12.492Z,21.07
2018-06-14T03:10:43.030Z,22.13
2018-06-14T03:13:13.741Z,23.09
2018-06-14T03:15:44.233Z,23.81
2018-06-14T03:18:14.860Z,24.73
2018-06-14T03:20:45.518Z,25.04
2018-06-14T03:23:16.271Z,25.57
2018-06-14T03:25:47.811Z,26.51
2018-06-14T03:28:19.164Z,26.77
2018-06-14T03:30:49.803Z,27.17
2018-06-14T03:33:21.148Z,28.25
2018-06-14T03:35:51.666Z,28.85
2018-06-14T03:38:22.168Z,29.50
2018-06-14T03:40:52.980Z,29.58
2018-06-14T03:43:23.657Z,29.14
2018-06-14T03:45:54.394Z,29.39
2018-06-14T03:48:24.885Z,31.29
2018-06-14T03:50:55.314Z,32.37
2018-06-14T03:53:25.882Z,31.68
2018-06-14T03:55:56.839Z,32.54
2018-06-14T03:58:28.232Z,32.64
2018-06-14T04:00:58.859Z,32.50
2018-06-14T04:03:30.327Z,31.53
2018-06-14T04:06:00.693Z,29.82
2018-06-14T04:08:31.864Z,29.23
2018-06-14T04:11:04.530Z,30.00
2018-06-14T04:13:35.563Z,30.63
2018-06-14T04:16:07.662Z,30.21
2018-06-14T04:18:38.599Z,32.01
2018-06-14T04:21:09.568Z,31.23
2018-06-14T04:23:40.700Z,30.93
2018-06-14T04:26:11.761Z,31.14
2018-06-14T04:28:44.284Z,32.05
2018-06-14T04:31:15.115Z,33.14
2018-06-14T04:33:47.023Z,34.57
2018-06-14T04:36:18.140Z,33.17
2018-06-14T04:38:50.309Z,33.62
2018-06-14T04:41:21.401Z,32.99
2018-06-14T04:43:52.391Z,32.60
2018-06-14T04:46:23.430Z,30.40
2018-06-14T04:48:54.440Z,31.97
2018-06-14T04:51:25.476Z,32.07
2018-06-14T04:53:56.723Z,32.66
2018-06-14T04:56:27.739Z,32.25
2018-06-14T04:58:59.109Z,30.85
2018-06-14T05:01:30.024Z,30.78
2018-06-14T05:04:01.907Z,30.85
2018-06-14T05:06:34.059Z,29.85
2018-06-14T05:09:07.281Z,31.13
2018-06-14T05:11:38.431Z,31.38
2018-06-14T05:14:09.790Z,32.97
2018-06-14T05:16:41.877Z,33.68
2018-06-14T05:19:12.901Z,33.86
2018-06-14T05:21:43.992Z,34.31
2018-06-14T05:24:15.485Z,34.06
2018-06-14T05:26:47.385Z,32.33
2018-06-14T05:29:18.380Z,33.43
2018-06-14T05:31:49.344Z,35.59
2018-06-14T05:34:20.458Z,36.65
2018-06-14T05:36:51.674Z,35.19
2018-06-14T05:39:23.755Z,34.34
2018-06-14T05:41:55.477Z,32.81
2018-06-14T05:44:26.526Z,32.17
2018-06-14T05:46:57.574Z,34.95
2018-06-14T05:49:29.362Z,33.55
2018-06-14T05:52:00.279Z,32.51
2018-06-14T05:54:31.261Z,33.40
2018-06-14T05:57:02.416Z,33.43
2018-06-14T05:59:34.497Z,31.75
2018-06-14T06:02:05.426Z,31.46
2018-06-14T06:04:36.573Z,31.73
2018-06-14T06:07:07.872Z,32.13
2018-06-14T06:09:40.210Z,32.11
2018-06-14T06:12:12.292Z,31.56
2018-06-14T06:14:43.559Z,32.87
2018-06-14T06:17:15.413Z,32.29
2018-06-14T06:19:46.734Z,32.80
2018-06-14T06:22:17.908Z,32.07
2018-06-14T06:24:49.186Z,32.13
2018-06-14T06:27:20.251Z,31.80
2018-06-14T06:29:52.368Z,31.84
2018-06-14T06:32:23.450Z,33.58
2018-06-14T06:34:54.323Z,33.64
2018-06-14T06:37:25.616Z,33.06
2018-06-14T06:39:57.446Z,30.93
2018-06-14T06:42:29.158Z,31.24
2018-06-14T06:45:00.157Z,32.25
2018-06-14T06:47:31.176Z,33.17
2018-06-14T06:50:03.453Z,34.46
2018-06-14T06:52:38.612Z,35.97
2018-06-14T06:55:09.692Z,36.70
2018-06-14T06:57:40.584Z,37.90
2018-06-14T07:00:12.537Z,37.83
2018-06-14T07:02:43.612Z,39.19
2018-06-14T07:05:14.401Z,41.98
2018-06-14T07:07:45.276Z,42.05
2018-06-14T07:10:16.434Z,39.39
2018-06-14T07:12:50.760Z,40.62
2018-06-14T07:15:21.855Z,41.24
2018-06-14T07:17:52.926Z,41.51
2018-06-14T07:20:23.791Z,40.56
2018-06-14T07:22:54.814Z,37.56
2018-06-14T07:25:26.890Z,37.82
2018-06-14T07:27:58.015Z,35.99
2018-06-14T07:30:29.801Z,35.01
2018-06-14T07:33:00.893Z,36.82
2018-06-14T07:35:31.924Z,38.06
2018-06-14T07:38:03.049Z,39.57
2018-06-14T07:40:34.399Z,38.69
2018-06-14T07:43:06.532Z,39.58
2018-06-14T07:45:37.566Z,39.77
2018-06-14T07:48:08.858Z,39.36
2018-06-14T07:50:40.061Z,37.28
2018-06-14T07:53:10.995Z,37.91
2018-06-14T07:55:42.811Z,37.92
2018-06-14T07:58:13.937Z,37.94
2018-06-14T08:00:44.914Z,36.38
2018-06-14T08:03:16.204Z,36.19
2018-06-14T08:05:47.451Z,35.18
2018-06-14T08:08:18.418Z,35.26
2018-06-14T08:10:49.504Z,33.45
2018-06-14T08:13:22.897Z,32.73
2018-06-14T08:15:53.997Z,31.75
2018-06-14T08:18:25.238Z,30.18
2018-06-14T08:20:56.628Z,30.07
2018-06-14T08:23:28.120Z,29.96
2018-06-14T08:25:59.314Z,29.37
2018-06-14T08:28:30.197Z,29.46
2018-06-14T08:31:03.063Z,28.41
2018-06-14T08:33:34.140Z,28.50
2018-06-14T08:36:05.148Z,28.18
2018-06-14T08:38:36.336Z,28.24
2018-06-14T08:41:07.547Z,28.26
2018-06-14T08:43:38.580Z,28.05
2018-06-14T08:46:09.637Z,27.94
2018-06-14T08:48:40.368Z,28.06
2018-06-14T08:51:11.603Z,27.89
2018-06-14T08:53:42.864Z,28.10
2018-06-14T08:56:14.102Z,27.68
2018-06-14T08:58:45.225Z,27.56
2018-06-14T09:01:16.314Z,27.15
2018-06-14T09:03:47.579Z,27.12
2018-06-14T09:06:18.604Z,26.91
2018-06-14T09:08:50.169Z,27.01
2018-06-14T09:11:21.489Z,26.58
2018-06-14T09:13:52.420Z,26.39
2018-06-14T09:16:23.837Z,26.68
2018-06-14T09:18:55.176Z,26.57
2018-06-14T09:21:26.977Z,26.35
2018-06-14T09:23:58.174Z,26.55
2018-06-14T09:26:29.098Z,26.72
2018-06-14T09:28:59.843Z,26.44
2018-06-14T09:31:30.960Z,26.48
2018-06-14T09:34:01.950Z,26.51
2018-06-14T09:36:34.161Z,26.47
2018-06-14T09:39:06.954Z,26.38
2018-06-14T09:41:38.412Z,26.56
2018-06-14T09:44:09.717Z,26.37
2018-06-14T09:46:41.153Z,26.63
2018-06-14T09:49:16.258Z,26.97
2018-06-14T09:51:48.697Z,26.76
2018-06-14T09:54:19.834Z,26.79
2018-06-14T09:56:51.710Z,27.00
2018-06-14T09:59:23.282Z,26.49
2018-06-14T10:01:55.538Z,26.51
2018-06-14T10:04:26.637Z,26.71
2018-06-14T10:06:58.785Z,26.93
2018-06-14T10:09:29.936Z,27.13
2018-06-14T10:12:01.160Z,27.21
2018-06-14T10:14:32.400Z,27.10
2018-06-14T10:17:04.168Z,26.84
2018-06-14T10:19:35.452Z,26.87
2018-06-14T10:22:06.712Z,26.60
2018-06-14T10:24:37.742Z,26.73
2018-06-14T10:27:08.763Z,26.78
2018-06-14T10:29:41.602Z,26.80
2018-06-14T10:32:12.834Z,26.87
2018-06-14T10:34:43.908Z,27.06
2018-06-14T10:37:15.150Z,26.46
2018-06-14T10:39:46.371Z,26.77
2018-06-14T10:42:17.691Z,26.75
2018-06-14T10:44:48.851Z,26.90
2018-06-14T10:47:20.709Z,26.86
2018-06-14T10:49:51.858Z,26.80
2018-06-14T10:52:25.747Z,26.98
2018-06-14T10:54:57.308Z,26.97
2018-06-14T10:57:28.553Z,26.97
2018-06-14T10:59:59.753Z,27.02
2018-06-14T11:02:30.848Z,26.95
2018-06-14T11:05:01.939Z,26.82
2018-06-14T11:07:33.269Z,26.83
2018-06-14T11:10:04.239Z,26.67
2018-06-14T11:12:35.179Z,26.56
2018-06-14T11:15:07.418Z,26.53
2018-06-14T11:17:38.642Z,26.54
2018-06-14T11:20:09.832Z,26.43
2018-06-14T11:22:43.031Z,26.37
2018-06-14T11:25:14.413Z,26.13
2018-06-14T11:27:46.191Z,26.11
2018-06-14T11:30:18.253Z,26.22
2018-06-14T11:32:49.317Z,26.10
2018-06-14T11:35:21.173Z,26.25
2018-06-14T11:37:52.608Z,26.33
2018-06-14T11:40:24.257Z,26.51
2018-06-14T11:42:55.693Z,26.47
2018-06-14T11:45:26.811Z,26.33
2018-06-14T11:47:57.525Z,26.44
2018-06-14T11:50:28.524Z,26.52
2018-06-14T11:52:59.705Z,26.53
2018-06-14T11:55:30.633Z,26.36
2018-06-14T11:58:32.698Z,26.48
2018-06-14T12:01:03.793Z,26.48
2018-06-14T12:03:35.267Z,26.16
2018-06-14T12:06:06.545Z,26.21
2018-06-14T12:08:37.484Z,26.35
2018-06-14T12:11:09.344Z,26.27
2018-06-14T12:13:41.417Z,26.42
2018-06-14T12:16:12.663Z,26.52
2018-06-14T12:18:44.036Z,26.61
2018-06-14T12:21:15.276Z,26.40
2018-06-14T12:23:47.118Z,26.28
2018-06-14T12:26:18.352Z,26.08
2018-06-14T12:28:50.150Z,25.66
2018-06-14T12:31:21.167Z,25.67
2018-06-14T12:33:52.274Z,25.61
2018-06-14T12:36:23.473Z,25.50
2018-06-14T12:38:54.651Z,25.73
2018-06-14T12:41:25.413Z,25.86
2018-06-14T12:43:57.218Z,26.11
2018-06-14T12:46:28.131Z,26.02
2018-06-14T12:48:59.420Z,25.72
2018-06-14T12:51:30.543Z,25.88
2018-06-14T12:54:01.880Z,26.07
2018-06-14T12:56:33.002Z,26.04
2018-06-14T12:59:04.164Z,25.85
2018-06-14T13:01:37.099Z,25.73
2018-06-14T13:04:08.404Z,25.57
2018-06-14T13:06:39.639Z,25.43
2018-06-14T13:09:12.750Z,25.67
2018-06-14T13:11:43.731Z,25.58
2018-06-14T13:14:14.866Z,25.62
2018-06-14T13:16:45.985Z,25.74
2018-06-14T13:19:18.263Z,25.89
2018-06-14T13:21:49.354Z,26.06
2018-06-14T13:24:21.445Z,25.65
2018-06-14T13:26:52.568Z,25.71
2018-06-14T13:29:25.709Z,25.77
2018-06-14T13:31:58.164Z,25.68
2018-06-14T13:34:29.286Z,25.83
2018-06-14T13:37:00.668Z,26.01
2018-06-14T13:39:31.906Z,25.61
2018-06-14T13:42:03.057Z,25.78
2018-06-14T13:44:34.005Z,25.67
2018-06-14T13:47:04.942Z,25.41
2018-06-14T13:49:36.157Z,25.36
2018-06-14T13:52:08.859Z,25.41
2018-06-14T13:54:40.897Z,25.32
2018-06-14T13:57:12.073Z,25.32
2018-06-14T13:59:43.180Z,25.32
2018-06-14T14:02:14.526Z,25.48
2018-06-14T14:04:45.724Z,25.57
2018-06-14T14:07:20.719Z,25.60
2018-06-14T14:09:52.070Z,25.58
2018-06-14T14:12:23.290Z,25.63
2018-06-14T14:14:55.597Z,25.77
2018-06-14T14:17:28.002Z,25.78
2018-06-14T14:19:59.279Z,25.60
2018-06-14T14:22:31.108Z,25.40
2018-06-14T14:25:02.358Z,25.33
2018-06-14T14:27:33.226Z,25.25
2018-06-14T14:30:06.214Z,25.26
2018-06-14T14:32:37.395Z,25.09
2018-06-14T14:35:08.832Z,24.98
2018-06-14T14:37:39.973Z,24.91
2018-06-14T14:40:11.061Z,24.87
2018-06-14T14:42:42.092Z,25.03
2018-06-14T14:45:13.013Z,24.83
2018-06-14T14:47:43.953Z,24.71
2018-06-14T14:50:15.259Z,24.76
2018-06-14T14:52:46.349Z,24.69
2018-06-14T14:55:18.005Z,24.73
2018-06-14T14:57:49.295Z,24.71
2018-06-14T15:00:20.606Z,24.62
2018-06-14T15:02:52.843Z,24.61
2018-06-14T15:08:00.990Z,24.57
2018-06-14T15:10:33.598Z,24.41
2018-06-14T15:13:04.361Z,24.44
2018-06-14T15:15:35.845Z,24.40
2018-06-14T15:18:06.851Z,24.36
2018-06-14T15:20:38.150Z,24.59
2018-06-14T15:23:09.130Z,24.58
2018-06-14T15:25:40.122Z,24.27
2018-06-14T15:28:12.275Z,24.24
2018-06-14T15:30:44.274Z,24.20
2018-06-14T15:33:15.083Z,24.11
2018-06-14T15:35:45.778Z,24.15
2018-06-14T15:38:16.381Z,24.19
2018-06-14T15:40:48.503Z,24.21
2018-06-14T15:43:19.558Z,24.01
2018-06-14T15:45:50.620Z,24.20
2018-06-14T15:48:21.757Z,23.99
2018-06-14T15:50:52.856Z,23.96
2018-06-14T15:53:24.903Z,23.94
2018-06-14T15:56:11.493Z,24.05
2018-06-14T15:58:46.491Z,24.08
2018-06-14T16:01:18.542Z,24.10
2018-06-14T16:03:49.829Z,24.04
2018-06-14T16:06:21.161Z,23.93
2018-06-14T16:08:52.371Z,23.56
2018-06-14T16:11:23.807Z,23.37
2018-06-14T16:13:55.389Z,23.42
2018-06-14T16:16:26.793Z,23.46
2018-06-14T16:19:04.157Z,23.29
2018-06-14T16:21:36.086Z,23.12
2018-06-14T16:24:07.143Z,23.27
2018-06-14T16:26:38.320Z,23.21
2018-06-14T16:29:09.816Z,23.20
2018-06-14T16:31:41.816Z,23.15
2018-06-14T16:34:13.572Z,23.05
2018-06-14T16:36:44.635Z,23.06
2018-06-14T16:39:15.819Z,22.95
2018-06-14T16:41:47.366Z,22.80
2018-06-14T16:44:18.392Z,22.83
2018-06-14T16:46:49.601Z,22.80
2018-06-14T16:49:20.586Z,22.79
2018-06-14T16:51:52.698Z,22.81
2018-06-14T16:54:23.798Z,22.72
2018-06-14T16:56:54.857Z,22.58
2018-06-14T16:59:26.433Z,22.63
2018-06-14T17:01:58.350Z,22.62
2018-06-14T17:04:29.578Z,22.57
2018-06-14T17:07:00.802Z,22.48
2018-06-14T17:09:32.005Z,22.43
2018-06-14T17:12:03.395Z,22.46
2018-06-14T17:14:34.893Z,22.47
2018-06-14T17:17:06.120Z,22.41
2018-06-14T17:19:43.037Z,22.41
2018-06-14T17:22:14.268Z,22.46
2018-06-14T17:24:46.015Z,22.35
2018-06-14T17:27:17.301Z,22.45
2018-06-14T17:29:53.087Z,22.43
2018-06-14T17:32:25.035Z,22.20
2018-06-14T17:34:56.135Z,22.08
2018-06-14T17:37:27.192Z,22.14
2018-06-14T17:39:58.336Z,22.05
2018-06-14T17:42:29.512Z,21.99
2018-06-14T17:45:00.628Z,22.01
2018-06-14T17:47:32.506Z,22.06
2018-06-14T17:50:03.733Z,22.02
2018-06-14T17:52:35.082Z,21.98
2018-06-14T17:55:07.419Z,21.82
2018-06-14T17:57:50.385Z,21.84
2018-06-14T18:00:21.815Z,21.93
2018-06-14T18:02:52.948Z,21.94
2018-06-14T18:05:24.030Z,21.86
2018-06-14T18:07:55.293Z,21.76
2018-06-14T18:10:30.137Z,21.72
2018-06-14T18:13:01.290Z,21.54
2018-06-14T18:15:32.486Z,21.55
2018-06-14T18:20:44.395Z,21.53
2018-06-14T18:23:15.851Z,21.42
2018-06-14T18:25:48.137Z,21.35
2018-06-14T18:28:19.812Z,21.32
2018-06-14T18:30:51.466Z,21.20
2018-06-14T18:33:25.811Z,21.21
2018-06-14T18:35:58.641Z,21.19
2018-06-14T18:38:29.920Z,21.23
2018-06-14T18:41:01.600Z,21.19
2018-06-14T18:43:33.061Z,21.21
2018-06-14T18:46:04.756Z,21.11
2018-06-14T18:48:39.373Z,21.18
2018-06-14T18:51:11.122Z,21.26
2018-06-14T18:53:43.029Z,21.25
2018-06-14T18:56:15.197Z,21.29
2018-06-14T19:01:16.074Z,21.38
2018-06-14T19:03:57.132Z,21.35
2018-06-14T19:06:28.458Z,21.28
2018-06-14T19:08:59.604Z,21.31
2018-06-14T19:11:32.759Z,21.39
2018-06-14T19:14:05.375Z,21.41
2018-06-14T19:16:37.154Z,21.51
2018-06-14T19:19:08.784Z,21.48
2018-06-14T19:21:51.232Z,21.51
2018-06-14T19:24:25.132Z,21.51
2018-06-14T19:26:56.721Z,21.51
2018-06-14T19:29:28.005Z,21.50
2018-06-14T19:31:59.211Z,21.35
2018-06-14T19:34:30.248Z,21.39
2018-06-14T19:37:01.298Z,21.41
2018-06-14T19:39:32.764Z,21.39
2018-06-14T19:42:04.980Z,21.42
2018-06-14T19:44:36.118Z,21.45
2018-06-14T19:47:07.978Z,21.42
2018-06-14T19:49:39.252Z,21.40
2018-06-14T19:52:10.369Z,21.34
2018-06-14T19:54:43.060Z,21.30
2018-06-14T19:57:14.789Z,21.38
2018-06-14T19:59:46.836Z,21.33
2018-06-14T20:02:19.494Z,21.30
2018-06-14T20:04:52.007Z,21.27
2018-06-14T20:07:23.277Z,21.19
2018-06-14T20:09:55.164Z,21.16
2018-06-14T20:12:26.420Z,21.11
2018-06-14T20:14:57.768Z,21.06
2018-06-14T20:17:29.321Z,21.09
2018-06-14T20:20:00.438Z,21.10
2018-06-14T20:22:31.459Z,20.95
2018-06-14T20:25:02.507Z,20.90
2018-06-14T20:27:33.794Z,20.78
2018-06-14T20:30:05.272Z,20.71
2018-06-14T20:32:36.689Z,20.73
2018-06-14T20:35:08.648Z,20.82
2018-06-14T20:37:39.826Z,20.82
2018-06-14T20:40:11.251Z,20.83
2018-06-14T20:42:42.438Z,20.75
2018-06-14T20:45:13.580Z,20.73
2018-06-14T20:47:44.713Z,20.73
2018-06-14T20:50:16.991Z,20.76
2018-06-14T20:52:49.003Z,20.75
2018-06-14T20:55:20.305Z,20.73
2018-06-14T20:57:51.632Z,20.72
2018-06-14T21:00:22.910Z,20.66
2018-06-14T21:02:54.804Z,20.61
2018-06-14T21:05:26.786Z,20.53
2018-06-14T21:07:57.866Z,20.44
2018-06-14T21:10:29.820Z,20.34
2018-06-14T21:13:00.951Z,20.27
2018-06-14T21:15:33.174Z,20.18
2018-06-14T21:18:04.171Z,20.18
2018-06-14T21:20:35.422Z,20.24
2018-06-14T21:23:07.834Z,20.32
2018-06-14T21:25:38.918Z,19.96
2018-06-14T21:28:10.124Z,20.33
2018-06-14T21:30:41.225Z,20.24
2018-06-14T21:33:12.821Z,20.18
2018-06-14T21:35:44.968Z,19.78
2018-06-14T21:38:16.296Z,19.97
2018-06-14T21:40:48.262Z,20.01
2018-06-14T21:43:19.306Z,20.04
2018-06-14T21:45:50.502Z,20.09
2018-06-14T21:48:21.482Z,20.03
2018-06-14T21:50:52.533Z,20.02
2018-06-14T21:53:23.666Z,19.96
2018-06-14T21:55:54.847Z,19.82
2018-06-14T21:58:25.679Z,19.82
2018-06-14T22:00:57.990Z,19.87
2018-06-14T22:03:34.047Z,19.84
2018-06-14T22:06:05.276Z,19.79
2018-06-14T22:08:37.313Z,19.80
2018-06-14T22:11:09.177Z,19.86
2018-06-14T22:13:40.373Z,20.02
2018-06-14T22:16:11.371Z,20.15
2018-06-14T22:18:42.401Z,20.22
2018-06-14T22:21:13.759Z,20.20
2018-06-14T22:23:45.032Z,20.29
2018-06-14T22:26:16.533Z,20.40
2018-06-14T22:28:47.650Z,20.43
2018-06-14T22:31:19.275Z,20.40
2018-06-14T22:34:00.855Z,20.33
2018-06-14T22:36:32.872Z,20.24
2018-06-14T22:39:04.248Z,20.18
2018-06-14T22:41:35.332Z,20.20
2018-06-14T22:44:06.409Z,20.24
2018-06-14T22:46:37.470Z,20.26
2018-06-14T22:49:08.763Z,20.20
2018-06-14T22:51:50.293Z,20.14
2018-06-14T22:54:21.278Z,20.13
2018-06-14T22:56:52.211Z,20.04
2018-06-14T22:59:23.419Z,20.02
2018-06-14T23:01:54.805Z,20.01
2018-06-14T23:04:27.116Z,20.01
2018-06-14T23:06:59.555Z,19.97
2018-06-14T23:10:42.535Z,19.93
2018-06-14T23:13:14.788Z,19.80
2018-06-14T23:15:45.870Z,19.80
2018-06-14T23:18:18.252Z,19.72
2018-06-14T23:20:50.003Z,19.63
2018-06-14T23:23:21.184Z,19.55
2018-06-14T23:25:52.482Z,19.53
2018-06-14T23:28:23.451Z,19.67
2018-06-14T23:30:54.659Z,19.76
2018-06-14T23:33:25.872Z,19.66
2018-06-14T23:35:57.045Z,19.68
2018-06-14T23:38:28.958Z,19.65
2018-06-14T23:41:00.105Z,19.62
2018-06-14T23:43:31.373Z,19.62
2018-06-14T23:46:02.629Z,19.69
2018-06-14T23:48:34.551Z,19.67
2018-06-14T23:51:05.581Z,19.73
2018-06-14T23:53:36.519Z,19.76
2018-06-14T23:56:07.431Z,19.77
2018-06-14T23:58:38.400Z,19.68
